sensor_id;sensor_type;location;lat;lon;timestamp;pressure;altitude;pressure_sealevel;temperature;humidity
46430;BME280;32131;53.454;-6.180;2022-10-23T00:01:13;100273.22;;;13.00;100.00
46430;BME280;32131;53.454;-6.180;2022-10-23T00:03:43;100280.13;;;13.00;100.00
46430;BME280;32131;53.454;-6.180;2022-10-23T00:06:12;100264.59;;;12.98;100.00
46430;BME280;32131;53.454;-6.180;2022-10-23T00:08:42;100265.44;;;13.00;100.00
46430;BME280;32131;53.454;-6.180;2022-10-23T00:11:14;100277.50;;;13.01;100.00
46430;BME280;32131;53.454;-6.180;2022-10-23T00:13:43;100272.34;;;13.03;100.00
46430;BME280;32131;53.454;-6.180;2022-10-23T00:16:11;100274.94;;;13.03;100.00
46430;BME280;32131;53.454;-6.180;2022-10-23T00:18:39;100270.63;;;13.05;100.00
46430;BME280;32131;53.454;-6.180;2022-10-23T00:21:09;100267.13;;;13.06;100.00
46430;BME280;32131;53.454;-6.180;2022-10-23T00:23:38;100251.59;;;13.06;100.00
46430;BME280;32131;53.454;-6.180;2022-10-23T00:26:09;100247.28;;;13.08;100.00
46430;BME280;32131;53.454;-6.180;2022-10-23T00:28:42;100255.94;;;13.09;100.00
46430;BME280;32131;53.454;-6.180;2022-10-23T00:31:11;100261.97;;;13.09;100.00
46430;BME280;32131;53.454;-6.180;2022-10-23T00:33:39;100256.78;;;13.09;100.00
46430;BME280;32131;53.454;-6.180;2022-10-23T00:36:09;100256.78;;;13.12;100.00
46430;BME280;32131;53.454;-6.180;2022-10-23T00:38:38;100260.22;;;13.14;100.00
46430;BME280;32131;53.454;-6.180;2022-10-23T00:41:10;100263.66;;;13.16;100.00
46430;BME280;32131;53.454;-6.180;2022-10-23T00:43:55;100260.22;;;13.17;100.00
46430;BME280;32131;53.454;-6.180;2022-10-23T00:46:23;100261.94;;;13.18;100.00
46430;BME280;32131;53.454;-6.180;2022-10-23T00:48:51;100261.94;;;13.20;100.00
46430;BME280;32131;53.454;-6.180;2022-10-23T00:51:20;100263.66;;;13.19;100.00
46430;BME280;32131;53.454;-6.180;2022-10-23T00:53:49;100267.13;;;13.17;100.00
46430;BME280;32131;53.454;-6.180;2022-10-23T00:56:43;100273.19;;;13.13;100.00
46430;BME280;32131;53.454;-6.180;2022-10-23T00:59:11;100268.00;;;13.08;100.00
46430;BME280;32131;53.454;-6.180;2022-10-23T01:01:40;100266.31;;;13.04;100.00
46430;BME280;32131;53.454;-6.180;2022-10-23T01:04:11;100263.72;;;13.01;100.00
46430;BME280;32131;53.454;-6.180;2022-10-23T01:06:42;100256.81;;;12.98;100.00
46430;BME280;32131;53.454;-6.180;2022-10-23T01:09:17;100254.22;;;12.95;100.00
46430;BME280;32131;53.454;-6.180;2022-10-23T01:11:52;100260.25;;;12.94;100.00
46430;BME280;32131;53.454;-6.180;2022-10-23T01:14:28;100262.00;;;12.94;100.00
46430;BME280;32131;53.454;-6.180;2022-10-23T01:17:04;100260.28;;;12.93;100.00
46430;BME280;32131;53.454;-6.180;2022-10-23T01:19:46;100258.53;;;12.92;100.00
46430;BME280;32131;53.454;-6.180;2022-10-23T01:22:29;100253.34;;;12.92;100.00
46430;BME280;32131;53.454;-6.180;2022-10-23T01:25:03;100252.50;;;12.91;100.00
46430;BME280;32131;53.454;-6.180;2022-10-23T01:27:39;100252.50;;;12.89;100.00
46430;BME280;32131;53.454;-6.180;2022-10-23T01:30:11;100248.19;;;12.92;100.00
46430;BME280;32131;53.454;-6.180;2022-10-23T01:32:44;100238.69;;;12.90;100.00
46430;BME280;32131;53.454;-6.180;2022-10-23T01:35:18;100233.50;;;12.90;100.00
46430;BME280;32131;53.454;-6.180;2022-10-23T01:37:50;100225.72;;;12.90;100.00
46430;BME280;32131;53.454;-6.180;2022-10-23T01:40:23;100217.94;;;12.90;100.00
46430;BME280;32131;53.454;-6.180;2022-10-23T01:43:03;100215.38;;;12.92;100.00
46430;BME280;32131;53.454;-6.180;2022-10-23T01:45:36;100214.47;;;12.93;100.00
46430;BME280;32131;53.454;-6.180;2022-10-23T01:48:08;100209.28;;;12.93;100.00
46430;BME280;32131;53.454;-6.180;2022-10-23T01:50:39;100207.59;;;12.94;100.00
46430;BME280;32131;53.454;-6.180;2022-10-23T01:53:09;100205.84;;;12.94;100.00
46430;BME280;32131;53.454;-6.180;2022-10-23T01:55:38;100199.81;;;12.94;100.00
46430;BME280;32131;53.454;-6.180;2022-10-23T01:58:14;100192.91;;;12.93;100.00
46430;BME280;32131;53.454;-6.180;2022-10-23T02:00:44;100194.63;;;12.94;100.00
46430;BME280;32131;53.454;-6.180;2022-10-23T02:03:13;100192.91;;;12.93;100.00
46430;BME280;32131;53.454;-6.180;2022-10-23T02:05:43;100193.75;;;12.92;100.00
46430;BME280;32131;53.454;-6.180;2022-10-23T02:08:11;100182.53;;;12.93;100.00
46430;BME280;32131;53.454;-6.180;2022-10-23T02:10:45;100182.53;;;12.93;100.00
46430;BME280;32131;53.454;-6.180;2022-10-23T02:13:22;100177.38;;;12.91;100.00
46430;BME280;32131;53.454;-6.180;2022-10-23T02:16:02;100174.75;;;12.89;100.00
46430;BME280;32131;53.454;-6.180;2022-10-23T02:18:38;100167.84;;;12.88;100.00
46430;BME280;32131;53.454;-6.180;2022-10-23T02:21:13;100177.38;;;12.86;100.00
46430;BME280;32131;53.454;-6.180;2022-10-23T02:23:48;100167.00;;;12.85;100.00
46430;BME280;32131;53.454;-6.180;2022-10-23T02:26:26;100167.88;;;12.87;100.00
46430;BME280;32131;53.454;-6.180;2022-10-23T02:29:00;100168.72;;;12.89;100.00
46430;BME280;32131;53.454;-6.180;2022-10-23T02:31:36;100172.16;;;12.93;100.00
46430;BME280;32131;53.454;-6.180;2022-10-23T02:34:04;100169.59;;;12.96;100.00
46430;BME280;32131;53.454;-6.180;2022-10-23T02:36:32;100171.28;;;13.00;100.00
46430;BME280;32131;53.454;-6.180;2022-10-23T02:39:00;100162.63;;;13.01;100.00
46430;BME280;32131;53.454;-6.180;2022-10-23T02:41:36;100163.50;;;13.03;100.00
46430;BME280;32131;53.454;-6.180;2022-10-23T02:44:16;100156.59;;;13.02;100.00
46430;BME280;32131;53.454;-6.180;2022-10-23T02:46:53;100156.59;;;13.00;100.00
46430;BME280;32131;53.454;-6.180;2022-10-23T02:49:26;100160.06;;;13.01;100.00
46430;BME280;32131;53.454;-6.180;2022-10-23T02:52:04;100147.09;;;13.01;100.00
46430;BME280;32131;53.454;-6.180;2022-10-23T02:54:49;100147.97;;;13.00;100.00
46430;BME280;32131;53.454;-6.180;2022-10-23T02:57:27;100137.63;;;12.97;100.00
46430;BME280;32131;53.454;-6.180;2022-10-23T03:00:04;100118.63;;;12.95;100.00
46430;BME280;32131;53.454;-6.180;2022-10-23T03:02:36;100118.63;;;12.95;100.00
46430;BME280;32131;53.454;-6.180;2022-10-23T03:05:10;100099.63;;;12.93;100.00
46430;BME280;32131;53.454;-6.180;2022-10-23T03:07:39;100100.47;;;12.92;100.00
46430;BME280;32131;53.454;-6.180;2022-10-23T03:10:09;100103.06;;;12.92;100.00
46430;BME280;32131;53.454;-6.180;2022-10-23T03:12:37;100099.63;;;12.91;100.00
46430;BME280;32131;53.454;-6.180;2022-10-23T03:15:09;100096.16;;;12.90;100.00
46430;BME280;32131;53.454;-6.180;2022-10-23T03:17:38;100097.91;;;12.92;100.00
46430;BME280;32131;53.454;-6.180;2022-10-23T03:20:07;100091.00;;;12.92;100.00
46430;BME280;32131;53.454;-6.180;2022-10-23T03:22:36;100087.53;;;12.92;100.00
46430;BME280;32131;53.454;-6.180;2022-10-23T03:25:05;100086.66;;;12.93;100.00
46430;BME280;32131;53.454;-6.180;2022-10-23T03:27:33;100085.81;;;12.97;100.00
46430;BME280;32131;53.454;-6.180;2022-10-23T03:30:03;100079.72;;;13.01;100.00
46430;BME280;32131;53.454;-6.180;2022-10-23T03:32:33;100083.16;;;13.03;100.00
46430;BME280;32131;53.454;-6.180;2022-10-23T03:35:01;100078.81;;;13.08;100.00
46430;BME280;32131;53.454;-6.180;2022-10-23T03:37:34;100080.53;;;13.09;100.00
46430;BME280;32131;53.454;-6.180;2022-10-23T03:40:03;100075.34;;;13.12;100.00
46430;BME280;32131;53.454;-6.180;2022-10-23T03:42:32;100077.91;;;13.14;100.00
46430;BME280;32131;53.454;-6.180;2022-10-23T03:45:00;100064.94;;;13.15;100.00
46430;BME280;32131;53.454;-6.180;2022-10-23T03:47:28;100068.41;;;13.14;100.00
46430;BME280;32131;53.454;-6.180;2022-10-23T03:49:59;100064.09;;;13.15;100.00
46430;BME280;32131;53.454;-6.180;2022-10-23T03:52:27;100062.34;;;13.15;100.00
46430;BME280;32131;53.454;-6.180;2022-10-23T03:54:55;100049.38;;;13.15;100.00
46430;BME280;32131;53.454;-6.180;2022-10-23T03:57:23;100053.69;;;13.18;100.00
46430;BME280;32131;53.454;-6.180;2022-10-23T03:59:51;100038.16;;;13.19;100.00
46430;BME280;32131;53.454;-6.180;2022-10-23T04:02:21;100034.69;;;13.20;100.00
46430;BME280;32131;53.454;-6.180;2022-10-23T04:04:51;100028.63;;;13.21;100.00
46430;BME280;32131;53.454;-6.180;2022-10-23T04:07:21;100015.69;;;13.21;100.00
46430;BME280;32131;53.454;-6.180;2022-10-23T04:09:49;100018.28;;;13.21;100.00
46430;BME280;32131;53.454;-6.180;2022-10-23T04:12:18;100010.47;;;13.23;100.00
46430;BME280;32131;53.454;-6.180;2022-10-23T04:14:46;100002.66;;;13.25;100.00
46430;BME280;32131;53.454;-6.180;2022-10-23T04:17:14;100001.81;;;13.26;100.00
46430;BME280;32131;53.454;-6.180;2022-10-23T04:19:42;99998.34;;;13.27;100.00
46430;BME280;32131;53.454;-6.180;2022-10-23T04:22:10;99994.91;;;13.23;100.00
46430;BME280;32131;53.454;-6.180;2022-10-23T04:24:40;99994.91;;;13.23;100.00
46430;BME280;32131;53.454;-6.180;2022-10-23T04:27:12;99988.84;;;13.23;100.00
46430;BME280;32131;53.454;-6.180;2022-10-23T04:29:40;99998.34;;;13.24;100.00
46430;BME280;32131;53.454;-6.180;2022-10-23T04:32:08;99988.84;;;13.26;100.00
46430;BME280;32131;53.454;-6.180;2022-10-23T04:34:36;99985.38;;;13.27;100.00
46430;BME280;32131;53.454;-6.180;2022-10-23T04:37:04;99981.91;;;13.28;100.00
46430;BME280;32131;53.454;-6.180;2022-10-23T04:39:33;99994.88;;;13.29;100.00
46430;BME280;32131;53.454;-6.180;2022-10-23T04:42:06;99988.84;;;13.29;100.00
46430;BME280;32131;53.454;-6.180;2022-10-23T04:44:34;99977.59;;;13.28;100.00
46430;BME280;32131;53.454;-6.180;2022-10-23T04:47:02;99974.16;;;13.28;100.00
46430;BME280;32131;53.454;-6.180;2022-10-23T04:49:30;99970.69;;;13.26;100.00
46430;BME280;32131;53.454;-6.180;2022-10-23T04:51:58;99968.13;;;13.23;100.00
46430;BME280;32131;53.454;-6.180;2022-10-23T04:54:26;99950.88;;;13.18;100.00
46430;BME280;32131;53.454;-6.180;2022-10-23T04:56:54;99938.81;;;13.14;100.00
46430;BME280;32131;53.454;-6.180;2022-10-23T04:59:24;99933.66;;;13.11;100.00
46430;BME280;32131;53.454;-6.180;2022-10-23T05:01:52;99928.50;;;13.08;100.00
46430;BME280;32131;53.454;-6.180;2022-10-23T05:04:20;99932.00;;;13.04;100.00
46430;BME280;32131;53.454;-6.180;2022-10-23T05:06:48;99937.19;;;13.01;100.00
46430;BME280;32131;53.454;-6.180;2022-10-23T05:09:16;99930.28;;;13.00;100.00
46430;BME280;32131;53.454;-6.180;2022-10-23T05:11:44;99923.38;;;12.99;100.00
46430;BME280;32131;53.454;-6.180;2022-10-23T05:14:14;99912.19;;;12.97;100.00
46430;BME280;32131;53.454;-6.180;2022-10-23T05:16:53;99895.78;;;12.95;100.00
46430;BME280;32131;53.454;-6.180;2022-10-23T05:19:24;99895.81;;;12.92;100.00
46430;BME280;32131;53.454;-6.180;2022-10-23T05:21:57;99908.75;;;12.88;100.00
46430;BME280;32131;53.454;-6.180;2022-10-23T05:24:25;99909.69;;;12.84;100.00
46430;BME280;32131;53.454;-6.180;2022-10-23T05:26:53;99913.16;;;12.82;100.00
46430;BME280;32131;53.454;-6.180;2022-10-23T05:29:22;99917.47;;;12.83;100.00
46430;BME280;32131;53.454;-6.180;2022-10-23T05:31:54;99913.13;;;12.86;100.00
46430;BME280;32131;53.454;-6.180;2022-10-23T05:34:25;99910.50;;;12.89;100.00
46430;BME280;32131;53.454;-6.180;2022-10-23T05:36:55;99912.22;;;12.92;100.00
46430;BME280;32131;53.454;-6.180;2022-10-23T05:39:26;99894.91;;;12.97;100.00
46430;BME280;32131;53.454;-6.180;2022-10-23T05:41:54;99881.06;;;13.00;100.00
46430;BME280;32131;53.454;-6.180;2022-10-23T05:44:22;99884.50;;;13.02;100.00
46430;BME280;32131;53.454;-6.180;2022-10-23T05:46:52;99885.34;;;13.04;100.00
46430;BME280;32131;53.454;-6.180;2022-10-23T05:49:20;99880.13;;;13.07;100.00
46430;BME280;32131;53.454;-6.180;2022-10-23T05:51:50;99881.84;;;13.08;100.00
46430;BME280;32131;53.454;-6.180;2022-10-23T05:54:18;99882.72;;;13.09;100.00
46430;BME280;32131;53.454;-6.180;2022-10-23T05:56:46;99878.38;;;13.09;100.00
46430;BME280;32131;53.454;-6.180;2022-10-23T05:59:15;99868.88;;;13.08;100.00
46430;BME280;32131;53.454;-6.180;2022-10-23T06:01:48;99862.84;;;13.06;100.00
46430;BME280;32131;53.454;-6.180;2022-10-23T06:04:18;99857.66;;;13.06;100.00
46430;BME280;32131;53.454;-6.180;2022-10-23T06:06:46;99864.63;;;13.04;100.00
46430;BME280;32131;53.454;-6.180;2022-10-23T06:09:14;99864.63;;;13.04;100.00
46430;BME280;32131;53.454;-6.180;2022-10-23T06:11:45;99862.84;;;13.06;100.00
46430;BME280;32131;53.454;-6.180;2022-10-23T06:14:13;99854.22;;;13.05;100.00
46430;BME280;32131;53.454;-6.180;2022-10-23T06:16:41;99864.59;;;13.05;100.00
46430;BME280;32131;53.454;-6.180;2022-10-23T06:19:11;99862.84;;;13.06;100.00
46430;BME280;32131;53.454;-6.180;2022-10-23T06:21:44;99848.19;;;13.05;100.00
46430;BME280;32131;53.454;-6.180;2022-10-23T06:24:12;99851.66;;;13.04;100.00
46430;BME280;32131;53.454;-6.180;2022-10-23T06:26:40;99835.25;;;13.02;100.00
46430;BME280;32131;53.454;-6.180;2022-10-23T06:29:08;99824.03;;;13.01;100.00
46430;BME280;32131;53.454;-6.180;2022-10-23T06:31:36;99819.75;;;13.00;100.00
46430;BME280;32131;53.454;-6.180;2022-10-23T06:34:08;99820.63;;;12.99;100.00
46430;BME280;32131;53.454;-6.180;2022-10-23T06:36:37;99818.91;;;12.97;100.00
46430;BME280;32131;53.454;-6.180;2022-10-23T06:39:10;99805.06;;;12.98;100.00
46430;BME280;32131;53.454;-6.180;2022-10-23T06:41:48;99799.00;;;12.99;100.00
46430;BME280;32131;53.454;-6.180;2022-10-23T06:44:36;99803.28;;;13.01;100.00
46430;BME280;32131;53.454;-6.180;2022-10-23T06:47:04;99788.63;;;13.02;100.00
46430;BME280;32131;53.454;-6.180;2022-10-23T06:49:32;99785.16;;;13.03;100.00
46430;BME280;32131;53.454;-6.180;2022-10-23T06:52:00;99777.44;;;12.98;100.00
46430;BME280;32131;53.454;-6.180;2022-10-23T06:54:30;99776.56;;;12.99;100.00
46430;BME280;32131;53.454;-6.180;2022-10-23T06:56:59;99778.31;;;12.97;100.00
46430;BME280;32131;53.454;-6.180;2022-10-23T06:59:30;99776.59;;;12.95;100.00
46430;BME280;32131;53.454;-6.180;2022-10-23T07:01:59;99780.91;;;12.96;100.00
46430;BME280;32131;53.454;-6.180;2022-10-23T07:04:30;99770.53;;;12.97;100.00
46430;BME280;32131;53.454;-6.180;2022-10-23T07:07:00;99768.75;;;13.01;100.00
46430;BME280;32131;53.454;-6.180;2022-10-23T07:09:30;99768.75;;;13.04;100.00
46430;BME280;32131;53.454;-6.180;2022-10-23T07:11:58;99772.16;;;13.06;100.00
46430;BME280;32131;53.454;-6.180;2022-10-23T07:14:26;99768.69;;;13.09;100.00
46430;BME280;32131;53.454;-6.180;2022-10-23T07:17:05;99763.50;;;13.10;100.00
46430;BME280;32131;53.454;-6.180;2022-10-23T07:19:33;99755.69;;;13.12;100.00
46430;BME280;32131;53.454;-6.180;2022-10-23T07:22:07;99743.59;;;13.12;100.00
46430;BME280;32131;53.454;-6.180;2022-10-23T07:24:42;99756.53;;;13.14;100.00
46430;BME280;32131;53.454;-6.180;2022-10-23T07:27:13;99753.09;;;13.13;100.00
46430;BME280;32131;53.454;-6.180;2022-10-23T07:29:41;99748.72;;;13.15;100.00
46430;BME280;32131;53.454;-6.180;2022-10-23T07:32:09;99746.13;;;13.18;100.00
46430;BME280;32131;53.454;-6.180;2022-10-23T07:34:42;99729.69;;;13.19;100.00
46430;BME280;32131;53.454;-6.180;2022-10-23T07:37:13;99737.41;;;13.23;100.00
46430;BME280;32131;53.454;-6.180;2022-10-23T07:39:42;99737.44;;;13.24;100.00
46430;BME280;32131;53.454;-6.180;2022-10-23T07:42:10;99743.47;;;13.26;100.00
46430;BME280;32131;53.454;-6.180;2022-10-23T07:44:38;99740.88;;;13.26;100.00
46430;BME280;32131;53.454;-6.180;2022-10-23T07:47:07;99738.25;;;13.25;100.00
46430;BME280;32131;53.454;-6.180;2022-10-23T07:49:35;99729.66;;;13.21;100.00
46430;BME280;32131;53.454;-6.180;2022-10-23T07:52:03;99728.88;;;13.14;100.00
46430;BME280;32131;53.454;-6.180;2022-10-23T07:54:34;99723.75;;;13.11;100.00
46430;BME280;32131;53.454;-6.180;2022-10-23T07:57:03;99719.44;;;13.10;100.00
46430;BME280;32131;53.454;-6.180;2022-10-23T07:59:33;99724.63;;;13.10;100.00
46430;BME280;32131;53.454;-6.180;2022-10-23T08:02:03;99715.09;;;13.11;100.00
46430;BME280;32131;53.454;-6.180;2022-10-23T08:04:31;99720.28;;;13.12;100.00
46430;BME280;32131;53.454;-6.180;2022-10-23T08:07:05;99722.00;;;13.13;100.00
46430;BME280;32131;53.454;-6.180;2022-10-23T08:09:33;99720.22;;;13.15;100.00
46430;BME280;32131;53.454;-6.180;2022-10-23T08:12:08;99708.97;;;13.18;100.00
46430;BME280;32131;53.454;-6.180;2022-10-23T08:14:36;99707.25;;;13.18;100.00
46430;BME280;32131;53.454;-6.180;2022-10-23T08:17:06;99699.47;;;13.18;100.00
46430;BME280;32131;53.454;-6.180;2022-10-23T08:19:35;99689.06;;;13.20;100.00
46430;BME280;32131;53.454;-6.180;2022-10-23T08:22:03;99687.28;;;13.24;100.00
46430;BME280;32131;53.454;-6.180;2022-10-23T08:24:34;99680.38;;;13.26;100.00
46430;BME280;32131;53.454;-6.180;2022-10-23T08:27:09;99672.56;;;13.29;100.00
46430;BME280;32131;53.454;-6.180;2022-10-23T08:29:37;99681.16;;;13.32;100.00
46430;BME280;32131;53.454;-6.180;2022-10-23T08:32:05;99684.59;;;13.33;100.00
46430;BME280;32131;53.454;-6.180;2022-10-23T08:34:33;99688.03;;;13.35;100.00
46430;BME280;32131;53.454;-6.180;2022-10-23T08:37:03;99693.19;;;13.38;100.00
46430;BME280;32131;53.454;-6.180;2022-10-23T08:39:38;99687.13;;;13.39;100.00
46430;BME280;32131;53.454;-6.180;2022-10-23T08:42:22;99690.56;;;13.43;100.00
46430;BME280;32131;53.454;-6.180;2022-10-23T08:44:56;99682.69;;;13.47;100.00
46430;BME280;32131;53.454;-6.180;2022-10-23T08:47:29;99674.81;;;13.57;100.00
46430;BME280;32131;53.454;-6.180;2022-10-23T08:50:05;99671.22;;;13.67;100.00
46430;BME280;32131;53.454;-6.180;2022-10-23T08:52:39;99670.16;;;13.79;100.00
46430;BME280;32131;53.454;-6.180;2022-10-23T08:55:15;99673.53;;;13.86;100.00
46430;BME280;32131;53.454;-6.180;2022-10-23T08:57:50;99667.41;;;13.91;100.00
46430;BME280;32131;53.454;-6.180;2022-10-23T09:00:22;99666.47;;;13.95;100.00
46430;BME280;32131;53.454;-6.180;2022-10-23T09:02:51;99668.13;;;13.99;100.00
46430;BME280;32131;53.454;-6.180;2022-10-23T09:05:26;99667.31;;;13.97;100.00
46430;BME280;32131;53.454;-6.180;2022-10-23T09:08:03;99663.00;;;13.96;100.00
46430;BME280;32131;53.454;-6.180;2022-10-23T09:10:57;99653.47;;;13.95;100.00
46430;BME280;32131;53.454;-6.180;2022-10-23T09:13:46;99650.09;;;13.93;100.00
46430;BME280;32131;53.454;-6.180;2022-10-23T09:16:25;99666.50;;;13.94;100.00
46430;BME280;32131;53.454;-6.180;2022-10-23T09:18:54;99650.13;;;13.90;100.00
46430;BME280;32131;53.454;-6.180;2022-10-23T09:21:26;99658.81;;;13.86;100.00
46430;BME280;32131;53.454;-6.180;2022-10-23T09:23:57;99657.16;;;13.82;100.00
46430;BME280;32131;53.454;-6.180;2022-10-23T09:26:25;99655.44;;;13.81;100.00
46430;BME280;32131;53.454;-6.180;2022-10-23T09:29:04;99658.06;;;13.78;100.00
46430;BME280;32131;53.454;-6.180;2022-10-23T09:31:47;99661.56;;;13.75;100.00
46430;BME280;32131;53.454;-6.180;2022-10-23T09:34:21;99657.38;;;13.68;100.00
46430;BME280;32131;53.454;-6.180;2022-10-23T09:36:52;99671.25;;;13.65;100.00
46430;BME280;32131;53.454;-6.180;2022-10-23T09:39:25;99659.19;;;13.61;100.00
46430;BME280;32131;53.454;-6.180;2022-10-23T09:41:54;99663.59;;;13.56;100.00
46430;BME280;32131;53.454;-6.180;2022-10-23T09:44:28;99654.97;;;13.54;100.00
46430;BME280;32131;53.454;-6.180;2022-10-23T09:46:59;99655.78;;;13.58;100.00
46430;BME280;32131;53.454;-6.180;2022-10-23T09:49:31;99648.81;;;13.61;100.00
46430;BME280;32131;53.454;-6.180;2022-10-23T09:52:03;99659.09;;;13.69;100.00
46430;BME280;32131;53.454;-6.180;2022-10-23T09:54:35;99651.19;;;13.75;100.00
46430;BME280;32131;53.454;-6.180;2022-10-23T09:57:14;99661.47;;;13.81;100.00
46430;BME280;32131;53.454;-6.180;2022-10-23T09:59:54;99652.63;;;13.95;100.00
46430;BME280;32131;53.454;-6.180;2022-10-23T10:02:26;99655.91;;;14.06;100.00
46430;BME280;32131;53.454;-6.180;2022-10-23T10:04:55;99635.56;;;14.33;100.00
46430;BME280;32131;53.454;-6.180;2022-10-23T10:07:25;99639.59;;;14.51;100.00
46430;BME280;32131;53.454;-6.180;2022-10-23T10:09:57;99640.25;;;14.61;100.00
46430;BME280;32131;53.454;-6.180;2022-10-23T10:12:42;99642.84;;;14.61;100.00
46430;BME280;32131;53.454;-6.180;2022-10-23T10:15:19;99637.63;;;14.64;100.00
46430;BME280;32131;53.454;-6.180;2022-10-23T10:17:57;99640.97;;;14.72;100.00
46430;BME280;32131;53.454;-6.180;2022-10-23T10:23:43;99632.50;;;14.58;100.00
46430;BME280;32131;53.454;-6.180;2022-10-23T10:26:22;99625.59;;;14.57;100.00
46430;BME280;32131;53.454;-6.180;2022-10-23T10:29:10;99625.56;;;14.60;100.00
46430;BME280;32131;53.454;-6.180;2022-10-23T10:31:51;99620.22;;;14.69;100.00
46430;BME280;32131;53.454;-6.180;2022-10-23T10:34:27;99621.72;;;14.81;100.00
46430;BME280;32131;53.454;-6.180;2022-10-23T10:37:01;99616.44;;;14.86;100.00
46430;BME280;32131;53.454;-6.180;2022-10-23T10:39:38;99624.03;;;14.95;100.00
46430;BME280;32131;53.454;-6.180;2022-10-23T10:42:27;99626.66;;;14.95;100.00
46430;BME280;32131;53.454;-6.180;2022-10-23T10:45:06;99616.22;;;14.97;100.00
46430;BME280;32131;53.454;-6.180;2022-10-23T10:47:48;99613.59;;;14.98;100.00
46430;BME280;32131;53.454;-6.180;2022-10-23T10:50:25;99613.31;;;15.11;100.00
46430;BME280;32131;53.454;-6.180;2022-10-23T10:53:01;99606.16;;;15.22;100.00
46430;BME280;32131;53.454;-6.180;2022-10-23T10:55:37;99599.06;;;15.30;100.00
46430;BME280;32131;53.454;-6.180;2022-10-23T10:58:11;99598.03;;;15.37;100.00
46430;BME280;32131;53.454;-6.180;2022-10-23T11:00:43;99588.16;;;15.52;100.00
46430;BME280;32131;53.454;-6.180;2022-10-23T11:03:26;99589.66;;;15.62;100.00
46430;BME280;32131;53.454;-6.180;2022-10-23T11:05:56;99585.06;;;15.74;100.00
46430;BME280;32131;53.454;-6.180;2022-10-23T11:08:34;99578.75;;;15.84;100.00
46430;BME280;32131;53.454;-6.180;2022-10-23T11:11:26;99575.06;;;15.93;100.00
46430;BME280;32131;53.454;-6.180;2022-10-23T11:13:55;99573.25;;;15.96;100.00
46430;BME280;32131;53.454;-6.180;2022-10-23T11:16:27;99564.44;;;16.02;100.00
46430;BME280;32131;53.454;-6.180;2022-10-23T11:19:03;99567.81;;;16.06;100.00
46430;BME280;32131;53.454;-6.180;2022-10-23T11:21:42;99564.19;;;16.11;100.00
46430;BME280;32131;53.454;-6.180;2022-10-23T11:24:22;99567.34;;;16.23;100.00
46430;BME280;32131;53.454;-6.180;2022-10-23T11:27:06;99561.59;;;16.43;100.00
46430;BME280;32131;53.454;-6.180;2022-10-23T11:29:50;99556.97;;;16.84;100.00
46430;BME280;32131;53.454;-6.180;2022-10-23T11:32:34;99556.94;;;17.16;100.00
46430;BME280;32131;53.454;-6.180;2022-10-23T11:35:19;99545.38;;;17.24;100.00
46430;BME280;32131;53.454;-6.180;2022-10-23T11:37:58;99553.66;;;17.09;100.00
46430;BME280;32131;53.454;-6.180;2022-10-23T11:40:28;99539.81;;;17.07;100.00
46430;BME280;32131;53.454;-6.180;2022-10-23T11:42:56;99543.72;;;16.92;100.00
46430;BME280;32131;53.454;-6.180;2022-10-23T11:45:26;99538.56;;;16.90;100.00
46430;BME280;32131;53.454;-6.180;2022-10-23T11:47:56;99547.03;;;16.99;100.00
46430;BME280;32131;53.454;-6.180;2022-10-23T11:50:29;99540.03;;;17.29;100.00
46430;BME280;32131;53.454;-6.180;2022-10-23T11:53:04;99523.91;;;17.70;100.00
46430;BME280;32131;53.454;-6.180;2022-10-23T11:55:55;99526.22;;;18.06;98.79
46430;BME280;32131;53.454;-6.180;2022-10-23T11:58:27;99537.34;;;18.36;97.52
46430;BME280;32131;53.454;-6.180;2022-10-23T12:01:01;99539.00;;;18.63;95.15
46430;BME280;32131;53.454;-6.180;2022-10-23T12:03:46;99541.09;;;18.53;94.02
46430;BME280;32131;53.454;-6.180;2022-10-23T12:06:21;99539.00;;;18.63;93.24
46430;BME280;32131;53.454;-6.180;2022-10-23T12:08:53;99537.16;;;18.89;92.75
46430;BME280;32131;53.454;-6.180;2022-10-23T12:11:26;99533.56;;;19.15;90.92
46430;BME280;32131;53.454;-6.180;2022-10-23T12:13:55;99531.50;;;19.23;89.11
46430;BME280;32131;53.454;-6.180;2022-10-23T12:16:33;99531.84;;;19.36;88.56
46430;BME280;32131;53.454;-6.180;2022-10-23T12:19:16;99525.72;;;19.37;88.18
46430;BME280;32131;53.454;-6.180;2022-10-23T12:21:50;99520.81;;;19.29;87.24
46430;BME280;32131;53.454;-6.180;2022-10-23T12:24:31;99519.22;;;19.25;87.47
46430;BME280;32131;53.454;-6.180;2022-10-23T12:27:22;99508.91;;;18.98;87.80
46430;BME280;32131;53.454;-6.180;2022-10-23T12:30:17;99504.03;;;18.65;87.64
46430;BME280;32131;53.454;-6.180;2022-10-23T12:33:03;99503.22;;;18.41;90.34
46430;BME280;32131;53.454;-6.180;2022-10-23T12:36:08;99503.63;;;18.29;91.35
46430;BME280;32131;53.454;-6.180;2022-10-23T12:38:44;99506.41;;;18.24;92.53
46430;BME280;32131;53.454;-6.180;2022-10-23T12:41:15;99500.16;;;18.04;92.33
46430;BME280;32131;53.454;-6.180;2022-10-23T12:43:49;99491.97;;;17.88;92.80
46430;BME280;32131;53.454;-6.180;2022-10-23T12:46:28;99484.50;;;17.78;94.00
46430;BME280;32131;53.454;-6.180;2022-10-23T12:48:58;99481.94;;;17.76;95.12
46430;BME280;32131;53.454;-6.180;2022-10-23T12:51:29;99484.66;;;17.73;94.70
46430;BME280;32131;53.454;-6.180;2022-10-23T12:53:58;99475.13;;;17.72;95.05
46430;BME280;32131;53.454;-6.180;2022-10-23T12:56:33;99486.41;;;17.72;95.00
46430;BME280;32131;53.454;-6.180;2022-10-23T12:59:03;99479.44;;;17.73;94.50
46430;BME280;32131;53.454;-6.180;2022-10-23T13:01:32;99466.41;;;17.73;95.04
46430;BME280;32131;53.454;-6.180;2022-10-23T13:04:09;99462.66;;;17.80;95.38
46430;BME280;32131;53.454;-6.180;2022-10-23T13:06:40;99459.03;;;17.84;95.79
46430;BME280;32131;53.454;-6.180;2022-10-23T13:09:19;99449.44;;;17.85;95.36